sensor_id;sensor_type;location;lat;lon;timestamp;pressure;altitude;pressure_sealevel;temperature;humidity
34482;BME280;20720;48.886;9.388;2023-06-14T00:02:00;97904.47;;;17.37;75.65
34482;BME280;20720;48.886;9.388;2023-06-14T00:04:26;97906.88;;;17.70;71.96
34482;BME280;20720;48.886;9.388;2023-06-14T00:06:51;97912.00;;;17.77;71.64
34482;BME280;20720;48.886;9.388;2023-06-14T00:09:18;97911.47;;;17.80;72.81
34482;BME280;20720;48.886;9.388;2023-06-14T00:11:43;97908.00;;;17.79;72.95
34482;BME280;20720;48.886;9.388;2023-06-14T00:14:09;97903.72;;;17.73;72.81
34482;BME280;20720;48.886;9.388;2023-06-14T00:16:34;97900.06;;;17.48;74.99
34482;BME280;20720;48.886;9.388;2023-06-14T00:19:03;97906.06;;;17.65;75.15
34482;BME280;20720;48.886;9.388;2023-06-14T00:21:30;97905.69;;;17.51;76.05
34482;BME280;20720;48.886;9.388;2023-06-14T00:23:56;97898.25;;;17.53;75.48
34482;BME280;20720;48.886;9.388;2023-06-14T00:26:22;97905.78;;;17.35;77.18
34482;BME280;20720;48.886;9.388;2023-06-14T00:28:47;97901.13;;;17.20;77.75
34482;BME280;20720;48.886;9.388;2023-06-14T00:31:12;97901.88;;;17.16;78.25
34482;BME280;20720;48.886;9.388;2023-06-14T00:33:38;97897.56;;;17.10;78.62
34482;BME280;20720;48.886;9.388;2023-06-14T00:36:03;97904.38;;;17.01;78.67
34482;BME280;20720;48.886;9.388;2023-06-14T00:38:28;97903.75;;;16.67;81.12
34482;BME280;20720;48.886;9.388;2023-06-14T00:40:54;97898.50;;;16.72;80.86
34482;BME280;20720;48.886;9.388;2023-06-14T00:43:19;97903.28;;;16.75;80.47
34482;BME280;20720;48.886;9.388;2023-06-14T00:45:44;97896.25;;;16.85;79.96
34482;BME280;20720;48.886;9.388;2023-06-14T00:48:10;97905.94;;;16.75;80.53
34482;BME280;20720;48.886;9.388;2023-06-14T00:50:36;97907.59;;;15.99;84.82
34482;BME280;20720;48.886;9.388;2023-06-14T00:53:03;97896.72;;;16.56;82.68
34482;BME280;20720;48.886;9.388;2023-06-14T00:55:29;97906.09;;;16.63;82.54
34482;BME280;20720;48.886;9.388;2023-06-14T00:57:55;97905.56;;;16.61;82.25
34482;BME280;20720;48.886;9.388;2023-06-14T01:00:21;97899.19;;;16.24;86.24
34482;BME280;20720;48.886;9.388;2023-06-14T01:02:46;97903.53;;;16.73;82.49
34482;BME280;20720;48.886;9.388;2023-06-14T01:05:13;97908.31;;;16.50;83.71
34482;BME280;20720;48.886;9.388;2023-06-14T01:13:34;97898.16;;;16.47;84.06
34482;BME280;20720;48.886;9.388;2023-06-14T01:16:01;97906.63;;;16.44;84.34
34482;BME280;20720;48.886;9.388;2023-06-14T01:18:28;97903.91;;;16.39;83.63
34482;BME280;20720;48.886;9.388;2023-06-14T01:20:55;97915.91;;;16.25;84.44
34482;BME280;20720;48.886;9.388;2023-06-14T01:23:22;97912.84;;;16.33;83.99
34482;BME280;20720;48.886;9.388;2023-06-14T01:25:48;97909.63;;;16.31;83.92
34482;BME280;20720;48.886;9.388;2023-06-14T01:28:19;97905.81;;;16.05;85.42
34482;BME280;20720;48.886;9.388;2023-06-14T01:30:47;97904.19;;;15.99;85.70
34482;BME280;20720;48.886;9.388;2023-06-14T01:33:19;97908.72;;;16.03;85.18
34482;BME280;20720;48.886;9.388;2023-06-14T01:35:47;97914.84;;;15.71;87.87
34482;BME280;20720;48.886;9.388;2023-06-14T01:38:13;97912.72;;;15.51;90.05
34482;BME280;20720;48.886;9.388;2023-06-14T01:40:40;97905.06;;;15.88;88.58
34482;BME280;20720;48.886;9.388;2023-06-14T01:43:07;97914.78;;;15.82;88.07
34482;BME280;20720;48.886;9.388;2023-06-14T01:45:33;97912.22;;;15.87;87.91
34482;BME280;20720;48.886;9.388;2023-06-14T01:48:00;97913.97;;;15.98;87.38
34482;BME280;20720;48.886;9.388;2023-06-14T01:50:29;97909.06;;;15.90;87.81
34482;BME280;20720;48.886;9.388;2023-06-14T01:52:55;97916.00;;;15.91;87.92
34482;BME280;20720;48.886;9.388;2023-06-14T01:55:20;97917.19;;;15.51;90.32
34482;BME280;20720;48.886;9.388;2023-06-14T01:57:47;97919.22;;;15.60;89.92
34482;BME280;20720;48.886;9.388;2023-06-14T02:00:13;97919.69;;;15.74;89.29
34482;BME280;20720;48.886;9.388;2023-06-14T02:02:40;97911.91;;;15.51;91.52
34482;BME280;20720;48.886;9.388;2023-06-14T02:05:06;97913.00;;;15.38;92.07
34482;BME280;20720;48.886;9.388;2023-06-14T02:07:31;97916.44;;;14.66;96.94
34482;BME280;20720;48.886;9.388;2023-06-14T02:09:56;97911.31;;;15.32;94.18
34482;BME280;20720;48.886;9.388;2023-06-14T02:12:21;97914.84;;;15.38;93.27
34482;BME280;20720;48.886;9.388;2023-06-14T02:14:47;97912.75;;;15.40;93.11
34482;BME280;20720;48.886;9.388;2023-06-14T02:17:13;97906.63;;;15.23;93.66
34482;BME280;20720;48.886;9.388;2023-06-14T02:19:38;97906.31;;;15.36;93.64
34482;BME280;20720;48.886;9.388;2023-06-14T02:22:04;97906.00;;;15.32;93.10
34482;BME280;20720;48.886;9.388;2023-06-14T02:24:29;97907.44;;;15.23;93.42
34482;BME280;20720;48.886;9.388;2023-06-14T02:26:54;97909.47;;;15.33;93.74
34482;BME280;20720;48.886;9.388;2023-06-14T02:29:20;97912.19;;;15.38;94.01
34482;BME280;20720;48.886;9.388;2023-06-14T02:31:46;97915.84;;;15.20;94.96
34482;BME280;20720;48.886;9.388;2023-06-14T02:34:13;97912.19;;;15.38;93.34
34482;BME280;20720;48.886;9.388;2023-06-14T02:36:38;97915.09;;;15.36;93.65
34482;BME280;20720;48.886;9.388;2023-06-14T02:39:07;97915.28;;;15.18;94.40
34482;BME280;20720;48.886;9.388;2023-06-14T02:41:32;97913.75;;;15.22;94.07
34482;BME280;20720;48.886;9.388;2023-06-14T02:43:57;97913.97;;;15.04;96.16
34482;BME280;20720;48.886;9.388;2023-06-14T02:46:23;97916.41;;;15.22;92.98
34482;BME280;20720;48.886;9.388;2023-06-14T02:48:49;97914.63;;;15.11;94.14
34482;BME280;20720;48.886;9.388;2023-06-14T02:51:14;97921.38;;;14.62;95.97
34482;BME280;20720;48.886;9.388;2023-06-14T02:53:39;97922.53;;;14.66;97.59
34482;BME280;20720;48.886;9.388;2023-06-14T02:56:05;97919.09;;;14.94;94.95
34482;BME280;20720;48.886;9.388;2023-06-14T02:58:31;97912.00;;;14.83;95.73
34482;BME280;20720;48.886;9.388;2023-06-14T03:00:56;97918.78;;;15.07;94.00
34482;BME280;20720;48.886;9.388;2023-06-14T03:03:21;97925.63;;;14.91;94.92
34482;BME280;20720;48.886;9.388;2023-06-14T03:05:49;97922.41;;;14.89;95.82
34482;BME280;20720;48.886;9.388;2023-06-14T03:08:16;97926.00;;;14.95;95.58
34482;BME280;20720;48.886;9.388;2023-06-14T03:10:47;97931.69;;;15.03;95.13
34482;BME280;20720;48.886;9.388;2023-06-14T03:13:13;97927.09;;;14.99;95.51
34482;BME280;20720;48.886;9.388;2023-06-14T03:15:38;97928.84;;;14.93;95.81
34482;BME280;20720;48.886;9.388;2023-06-14T03:18:07;97929.03;;;14.36;100.00
34482;BME280;20720;48.886;9.388;2023-06-14T03:20:33;97932.59;;;14.81;97.00
34482;BME280;20720;48.886;9.388;2023-06-14T03:23:02;97939.22;;;14.95;96.25
34482;BME280;20720;48.886;9.388;2023-06-14T03:25:28;97937.94;;;14.97;96.68
34482;BME280;20720;48.886;9.388;2023-06-14T03:27:56;97945.91;;;14.86;96.77
34482;BME280;20720;48.886;9.388;2023-06-14T03:30:22;97947.06;;;14.78;96.19
34482;BME280;20720;48.886;9.388;2023-06-14T03:32:47;97953.19;;;14.79;97.07
34482;BME280;20720;48.886;9.388;2023-06-14T03:35:12;97947.06;;;14.15;100.00
34482;BME280;20720;48.886;9.388;2023-06-14T03:37:43;97949.50;;;14.80;98.63
34482;BME280;20720;48.886;9.388;2023-06-14T03:40:08;97944.97;;;15.20;94.51
34482;BME280;20720;48.886;9.388;2023-06-14T03:42:33;97955.13;;;14.44;98.97
34482;BME280;20720;48.886;9.388;2023-06-14T03:44:59;97943.44;;;14.68;100.00
34482;BME280;20720;48.886;9.388;2023-06-14T03:47:24;97946.56;;;15.21;95.01
34482;BME280;20720;48.886;9.388;2023-06-14T03:49:49;97946.06;;;15.52;90.23
34482;BME280;20720;48.886;9.388;2023-06-14T03:52:14;97944.59;;;15.00;93.61
34482;BME280;20720;48.886;9.388;2023-06-14T03:54:41;97955.41;;;15.27;92.87
34482;BME280;20720;48.886;9.388;2023-06-14T03:57:08;97964.16;;;15.55;89.39
34482;BME280;20720;48.886;9.388;2023-06-14T03:59:33;97962.50;;;15.09;90.77
34482;BME280;20720;48.886;9.388;2023-06-14T04:01:58;97961.66;;;15.49;88.77
34482;BME280;20720;48.886;9.388;2023-06-14T04:04:24;97958.69;;;15.62;88.29
34482;BME280;20720;48.886;9.388;2023-06-14T04:06:54;97960.53;;;15.33;89.93
34482;BME280;20720;48.886;9.388;2023-06-14T04:09:19;97972.97;;;15.44;89.21
34482;BME280;20720;48.886;9.388;2023-06-14T04:11:44;97970.53;;;15.43;89.94
34482;BME280;20720;48.886;9.388;2023-06-14T04:14:09;97972.66;;;15.57;87.64
34482;BME280;20720;48.886;9.388;2023-06-14T04:16:35;97979.06;;;15.61;88.58
34482;BME280;20720;48.886;9.388;2023-06-14T04:19:00;97983.63;;;15.49;88.08
34482;BME280;20720;48.886;9.388;2023-06-14T04:21:25;97978.91;;;15.84;88.96
34482;BME280;20720;48.886;9.388;2023-06-14T04:23:52;97990.16;;;16.25;87.21
34482;BME280;20720;48.886;9.388;2023-06-14T04:26:19;97993.38;;;16.10;89.22
34482;BME280;20720;48.886;9.388;2023-06-14T04:28:45;97996.28;;;16.09;89.02
34482;BME280;20720;48.886;9.388;2023-06-14T04:31:12;98004.88;;;16.16;87.94
34482;BME280;20720;48.886;9.388;2023-06-14T04:33:37;98003.47;;;16.30;85.36
34482;BME280;20720;48.886;9.388;2023-06-14T04:36:12;97994.13;;;16.44;83.89
34482;BME280;20720;48.886;9.388;2023-06-14T04:38:38;97999.75;;;16.47;83.67
34482;BME280;20720;48.886;9.388;2023-06-14T04:41:03;98012.78;;;16.49;82.31
34482;BME280;20720;48.886;9.388;2023-06-14T04:43:29;98008.44;;;16.43;81.89
34482;BME280;20720;48.886;9.388;2023-06-14T04:45:55;98001.72;;;16.52;79.63
34482;BME280;20720;48.886;9.388;2023-06-14T04:48:21;98008.09;;;17.42;75.97
34482;BME280;20720;48.886;9.388;2023-06-14T04:50:47;98006.78;;;18.35;71.08
34482;BME280;20720;48.886;9.388;2023-06-14T04:53:13;98004.09;;;19.33;67.05
34482;BME280;20720;48.886;9.388;2023-06-14T04:55:38;98018.78;;;20.72;62.43
34482;BME280;20720;48.886;9.388;2023-06-14T04:58:03;98015.69;;;21.23;59.96
34482;BME280;20720;48.886;9.388;2023-06-14T05:00:30;98020.47;;;22.09;56.90
34482;BME280;20720;48.886;9.388;2023-06-14T05:02:55;98013.53;;;22.08;56.05
34482;BME280;20720;48.886;9.388;2023-06-14T05:05:22;98016.00;;;22.33;55.07
34482;BME280;20720;48.886;9.388;2023-06-14T05:07:47;98022.69;;;22.64;54.50
34482;BME280;20720;48.886;9.388;2023-06-14T05:10:12;98022.91;;;23.39;54.10
34482;BME280;20720;48.886;9.388;2023-06-14T05:12:38;98024.97;;;22.47;57.03
34482;BME280;20720;48.886;9.388;2023-06-14T05:15:03;98023.44;;;21.69;59.12
34482;BME280;20720;48.886;9.388;2023-06-14T05:17:29;98021.75;;;23.21;54.70
34482;BME280;20720;48.886;9.388;2023-06-14T05:19:55;98023.06;;;24.03;52.97
34482;BME280;20720;48.886;9.388;2023-06-14T05:22:21;98014.38;;;24.38;52.10
34482;BME280;20720;48.886;9.388;2023-06-14T05:24:47;98022.41;;;22.89;54.22
34482;BME280;20720;48.886;9.388;2023-06-14T05:27:13;98020.81;;;23.54;53.70
34482;BME280;20720;48.886;9.388;2023-06-14T05:29:38;98022.59;;;23.77;53.42
34482;BME280;20720;48.886;9.388;2023-06-14T05:32:04;98026.25;;;24.64;51.88
34482;BME280;20720;48.886;9.388;2023-06-14T05:34:29;98028.63;;;24.84;51.26
34482;BME280;20720;48.886;9.388;2023-06-14T05:36:54;98034.88;;;24.93;50.88
34482;BME280;20720;48.886;9.388;2023-06-14T05:39:20;98039.75;;;24.78;50.81
34482;BME280;20720;48.886;9.388;2023-06-14T05:41:45;98034.72;;;23.93;53.80
34482;BME280;20720;48.886;9.388;2023-06-14T05:44:10;98035.88;;;23.87;54.71
34482;BME280;20720;48.886;9.388;2023-06-14T05:46:36;98041.44;;;23.91;54.98
34482;BME280;20720;48.886;9.388;2023-06-14T05:49:01;98036.88;;;24.88;53.34
34482;BME280;20720;48.886;9.388;2023-06-14T05:51:26;98036.09;;;25.77;51.05
34482;BME280;20720;48.886;9.388;2023-06-14T05:53:52;98036.03;;;26.27;49.23
34482;BME280;20720;48.886;9.388;2023-06-14T05:56:18;98035.34;;;26.43;47.05
34482;BME280;20720;48.886;9.388;2023-06-14T05:58:44;98039.84;;;25.90;48.28
34482;BME280;20720;48.886;9.388;2023-06-14T06:01:09;98036.47;;;25.08;49.09
34482;BME280;20720;48.886;9.388;2023-06-14T06:03:34;98029.59;;;26.14;46.38
34482;BME280;20720;48.886;9.388;2023-06-14T06:06:00;98038.53;;;25.38;47.59
34482;BME280;20720;48.886;9.388;2023-06-14T06:08:26;98033.97;;;26.54;44.17
34482;BME280;20720;48.886;9.388;2023-06-14T06:10:52;98038.78;;;25.14;45.83
34482;BME280;20720;48.886;9.388;2023-06-14T06:13:17;98041.91;;;25.71;45.47
34482;BME280;20720;48.886;9.388;2023-06-14T06:15:42;98035.59;;;26.11;44.67
34482;BME280;20720;48.886;9.388;2023-06-14T06:18:07;98043.13;;;27.15;43.90
34482;BME280;20720;48.886;9.388;2023-06-14T06:20:33;98038.84;;;26.44;45.08
34482;BME280;20720;48.886;9.388;2023-06-14T06:22:58;98041.03;;;27.42;43.59
34482;BME280;20720;48.886;9.388;2023-06-14T06:25:24;98038.53;;;27.15;43.22
34482;BME280;20720;48.886;9.388;2023-06-14T06:27:51;98041.38;;;28.18;41.42
34482;BME280;20720;48.886;9.388;2023-06-14T06:30:16;98048.97;;;28.41;41.18
34482;BME280;20720;48.886;9.388;2023-06-14T06:32:42;98035.13;;;26.92;44.46
34482;BME280;20720;48.886;9.388;2023-06-14T06:35:07;98049.78;;;27.65;43.52
34482;BME280;20720;48.886;9.388;2023-06-14T06:37:33;98049.88;;;26.95;44.11
34482;BME280;20720;48.886;9.388;2023-06-14T06:39:59;98043.13;;;26.23;45.46
34482;BME280;20720;48.886;9.388;2023-06-14T06:42:24;98049.00;;;28.07;42.91
34482;BME280;20720;48.886;9.388;2023-06-14T06:44:49;98055.72;;;26.88;44.28
34482;BME280;20720;48.886;9.388;2023-06-14T06:47:15;98050.03;;;26.37;44.88
34482;BME280;20720;48.886;9.388;2023-06-14T06:49:40;98054.97;;;27.36;42.51
34482;BME280;20720;48.886;9.388;2023-06-14T06:52:06;98063.66;;;28.95;40.19
34482;BME280;20720;48.886;9.388;2023-06-14T06:54:32;98063.13;;;27.87;42.02
34482;BME280;20720;48.886;9.388;2023-06-14T06:56:58;98064.00;;;25.81;44.98
34482;BME280;20720;48.886;9.388;2023-06-14T06:59:24;98061.97;;;27.54;42.28
34482;BME280;20720;48.886;9.388;2023-06-14T07:01:49;98068.50;;;27.53;42.56
34482;BME280;20720;48.886;9.388;2023-06-14T07:04:15;98067.88;;;27.73;41.98
34482;BME280;20720;48.886;9.388;2023-06-14T07:06:42;98071.75;;;28.06;41.41
34482;BME280;20720;48.886;9.388;2023-06-14T07:09:07;98072.66;;;27.84;43.04
34482;BME280;20720;48.886;9.388;2023-06-14T07:11:37;98079.09;;;27.41;43.79
34482;BME280;20720;48.886;9.388;2023-06-14T07:14:02;98083.34;;;28.32;41.99
34482;BME280;20720;48.886;9.388;2023-06-14T07:16:28;98082.19;;;26.34;44.94
34482;BME280;20720;48.886;9.388;2023-06-14T07:18:53;98084.09;;;27.17;44.72
34482;BME280;20720;48.886;9.388;2023-06-14T07:21:18;98085.38;;;27.28;43.76
34482;BME280;20720;48.886;9.388;2023-06-14T07:23:43;98086.84;;;25.70;44.92
34482;BME280;20720;48.886;9.388;2023-06-14T07:26:09;98090.69;;;26.05;45.38
34482;BME280;20720;48.886;9.388;2023-06-14T07:28:34;98086.81;;;25.84;46.90
34482;BME280;20720;48.886;9.388;2023-06-14T07:30:59;98089.13;;;26.70;45.95
34482;BME280;20720;48.886;9.388;2023-06-14T07:33:25;98092.13;;;25.89;45.84
34482;BME280;20720;48.886;9.388;2023-06-14T07:35:50;98092.91;;;27.39;43.37
34482;BME280;20720;48.886;9.388;2023-06-14T07:38:15;98093.19;;;28.45;41.24
34482;BME280;20720;48.886;9.388;2023-06-14T07:40:40;98093.75;;;26.78;43.30
34482;BME280;20720;48.886;9.388;2023-06-14T07:43:06;98092.91;;;26.47;43.19
34482;BME280;20720;48.886;9.388;2023-06-14T07:45:31;98090.66;;;28.40;40.52
34482;BME280;20720;48.886;9.388;2023-06-14T07:47:56;98101.06;;;27.17;42.38
34482;BME280;20720;48.886;9.388;2023-06-14T07:50:21;98101.94;;;28.42;42.21
34482;BME280;20720;48.886;9.388;2023-06-14T07:52:47;98101.63;;;28.35;40.70
34482;BME280;20720;48.886;9.388;2023-06-14T07:55:13;98099.59;;;27.42;41.84
34482;BME280;20720;48.886;9.388;2023-06-14T07:57:40;98106.16;;;27.75;41.73
34482;BME280;20720;48.886;9.388;2023-06-14T08:00:05;98092.16;;;27.56;43.26
34482;BME280;20720;48.886;9.388;2023-06-14T08:02:31;98103.34;;;28.65;41.54
34482;BME280;20720;48.886;9.388;2023-06-14T08:04:57;98095.31;;;30.11;37.76
34482;BME280;20720;48.886;9.388;2023-06-14T08:07:22;98099.63;;;27.20;41.97
34482;BME280;20720;48.886;9.388;2023-06-14T08:09:47;98103.31;;;26.84;42.38
34482;BME280;20720;48.886;9.388;2023-06-14T08:12:12;98102.91;;;28.63;40.04
34482;BME280;20720;48.886;9.388;2023-06-14T08:14:39;98097.56;;;26.33;43.63
34482;BME280;20720;48.886;9.388;2023-06-14T08:17:05;98095.88;;;28.45;41.68
34482;BME280;20720;48.886;9.388;2023-06-14T08:19:30;98099.69;;;29.54;39.23
34482;BME280;20720;48.886;9.388;2023-06-14T08:21:56;98106.25;;;29.15;40.71
34482;BME280;20720;48.886;9.388;2023-06-14T08:24:21;98110.31;;;27.81;42.35
34482;BME280;20720;48.886;9.388;2023-06-14T08:26:49;98104.47;;;28.64;40.68
34482;BME280;20720;48.886;9.388;2023-06-14T08:29:15;98101.44;;;29.21;40.64
34482;BME280;20720;48.886;9.388;2023-06-14T08:31:40;98097.81;;;28.02;40.17
34482;BME280;20720;48.886;9.388;2023-06-14T08:34:05;98099.97;;;30.11;39.08
34482;BME280;20720;48.886;9.388;2023-06-14T08:36:31;98097.25;;;30.85;37.72
34482;BME280;20720;48.886;9.388;2023-06-14T08:38:56;98101.13;;;28.16;40.06
34482;BME280;20720;48.886;9.388;2023-06-14T08:41:22;98096.84;;;26.94;41.96
34482;BME280;20720;48.886;9.388;2023-06-14T08:43:49;98096.75;;;29.38;38.96
34482;BME280;20720;48.886;9.388;2023-06-14T08:46:17;98100.53;;;29.46;39.80
34482;BME280;20720;48.886;9.388;2023-06-14T08:48:46;98114.09;;;30.57;36.75
34482;BME280;20720;48.886;9.388;2023-06-14T08:51:12;98102.09;;;28.37;38.48
34482;BME280;20720;48.886;9.388;2023-06-14T08:53:39;98106.28;;;28.98;40.02
34482;BME280;20720;48.886;9.388;2023-06-14T08:56:08;98112.91;;;28.20;39.77
34482;BME280;20720;48.886;9.388;2023-06-14T08:58:44;98099.38;;;30.05;38.46
34482;BME280;20720;48.886;9.388;2023-06-14T09:01:11;98115.75;;;29.59;37.50
34482;BME280;20720;48.886;9.388;2023-06-14T09:03:40;98104.13;;;31.51;36.03
34482;BME280;20720;48.886;9.388;2023-06-14T09:06:06;98110.91;;;32.76;34.65
34482;BME280;20720;48.886;9.388;2023-06-14T09:08:34;98112.81;;;29.43;38.00
34482;BME280;20720;48.886;9.388;2023-06-14T09:11:01;98109.50;;;30.37;38.81
34482;BME280;20720;48.886;9.388;2023-06-14T09:13:27;98108.75;;;28.74;38.30
34482;BME280;20720;48.886;9.388;2023-06-14T09:15:52;98110.91;;;30.55;36.45
34482;BME280;20720;48.886;9.388;2023-06-14T09:18:17;98106.97;;;30.32;36.14
34482;BME280;20720;48.886;9.388;2023-06-14T09:20:45;98113.84;;;32.16;34.50
34482;BME280;20720;48.886;9.388;2023-06-14T09:23:12;98109.06;;;31.61;34.72
34482;BME280;20720;48.886;9.388;2023-06-14T09:25:45;98108.59;;;30.33;35.38
34482;BME280;20720;48.886;9.388;2023-06-14T09:28:11;98101.75;;;29.57;37.39
34482;BME280;20720;48.886;9.388;2023-06-14T09:30:37;98108.09;;;30.11;37.42
34482;BME280;20720;48.886;9.388;2023-06-14T09:33:03;98117.09;;;29.07;38.26
34482;BME280;20720;48.886;9.388;2023-06-14T09:35:31;98120.31;;;29.96;37.38
34482;BME280;20720;48.886;9.388;2023-06-14T09:37:56;98110.19;;;31.72;33.88
34482;BME280;20720;48.886;9.388;2023-06-14T09:40:22;98115.59;;;32.08;33.94
34482;BME280;20720;48.886;9.388;2023-06-14T09:42:47;98116.41;;;29.27;36.46
34482;BME280;20720;48.886;9.388;2023-06-14T09:45:13;98118.81;;;31.62;34.87
34482;BME280;20720;48.886;9.388;2023-06-14T09:47:39;98121.00;;;33.35;33.03
34482;BME280;20720;48.886;9.388;2023-06-14T09:50:04;98120.88;;;34.32;31.04
34482;BME280;20720;48.886;9.388;2023-06-14T09:52:31;98118.13;;;31.77;33.67
34482;BME280;20720;48.886;9.388;2023-06-14T09:54:58;98116.69;;;33.99;31.06
34482;BME280;20720;48.886;9.388;2023-06-14T09:57:25;98111.13;;;33.46;32.48
34482;BME280;20720;48.886;9.388;2023-06-14T09:59:53;98112.41;;;33.98;31.92
34482;BME280;20720;48.886;9.388;2023-06-14T10:02:25;98110.84;;;28.51;35.72
34482;BME280;20720;48.886;9.388;2023-06-14T10:04:57;98107.13;;;26.83;38.88
34482;BME280;20720;48.886;9.388;2023-06-14T10:07:26;98112.03;;;29.43;36.65
34482;BME280;20720;48.886;9.388;2023-06-14T10:09:55;98113.22;;;31.34;32.91
34482;BME280;20720;48.886;9.388;2023-06-14T10:12:20;98107.09;;;31.01;32.98
34482;BME280;20720;48.886;9.388;2023-06-14T10:14:50;98116.00;;;34.22;29.85
34482;BME280;20720;48.886;9.388;2023-06-14T10:17:21;98107.03;;;35.72;28.47
34482;BME280;20720;48.886;9.388;2023-06-14T10:19:56;98099.06;;;36.46;26.90
34482;BME280;20720;48.886;9.388;2023-06-14T10:22:32;98108.66;;;32.51;28.74
34482;BME280;20720;48.886;9.388;2023-06-14T10:25:01;98109.97;;;34.70;27.23
34482;BME280;20720;48.886;9.388;2023-06-14T10:27:27;98099.31;;;34.84;28.33
34482;BME280;20720;48.886;9.388;2023-06-14T10:32:17;98095.09;;;30.57;31.76
34482;BME280;20720;48.886;9.388;2023-06-14T10:34:44;98098.09;;;34.43;29.30
34482;BME280;20720;48.886;9.388;2023-06-14T10:37:13;98092.75;;;35.11;26.63
34482;BME280;20720;48.886;9.388;2023-06-14T10:39:45;98101.34;;;30.17;31.30
34482;BME280;20720;48.886;9.388;2023-06-14T10:42:12;98096.63;;;34.27;29.23
34482;BME280;20720;48.886;9.388;2023-06-14T10:44:41;98085.97;;;35.47;27.03
34482;BME280;20720;48.886;9.388;2023-06-14T10:47:09;98091.28;;;34.34;27.37
34482;BME280;20720;48.886;9.388;2023-06-14T10:49:45;98086.78;;;30.75;31.27
34482;BME280;20720;48.886;9.388;2023-06-14T10:52:14;98093.38;;;29.12;33.70
34482;BME280;20720;48.886;9.388;2023-06-14T10:57:32;98092.56;;;29.99;31.65
34482;BME280;20720;48.886;9.388;2023-06-14T10:59:58;98084.31;;;29.37;33.30
34482;BME280;20720;48.886;9.388;2023-06-14T11:02:48;98094.91;;;27.81;34.54
34482;BME280;20720;48.886;9.388;2023-06-14T11:05:23;98086.31;;;31.05;29.29
34482;BME280;20720;48.886;9.388;2023-06-14T11:08:26;98092.38;;;31.02;30.24
34482;BME280;20720;48.886;9.388;2023-06-14T11:10:54;98092.94;;;34.76;29.22
34482;BME280;20720;48.886;9.388;2023-06-14T11:13:25;98086.75;;;35.02;26.03
34482;BME280;20720;48.886;9.388;2023-06-14T11:15:50;98093.00;;;34.03;28.00
34482;BME280;20720;48.886;9.388;2023-06-14T11:18:18;98092.16;;;36.26;25.57
34482;BME280;20720;48.886;9.388;2023-06-14T11:20:46;98084.91;;;36.77;25.68
34482;BME280;20720;48.886;9.388;2023-06-14T11:23:12;98077.84;;;35.05;27.04
34482;BME280;20720;48.886;9.388;2023-06-14T11:25:37;98087.53;;;31.80;31.17
34482;BME280;20720;48.886;9.388;2023-06-14T11:28:02;98088.94;;;35.64;27.70
34482;BME280;20720;48.886;9.388;2023-06-14T11:30:27;98084.25;;;36.21;26.14
34482;BME280;20720;48.886;9.388;2023-06-14T11:32:54;98085.16;;;35.72;26.46
34482;BME280;20720;48.886;9.388;2023-06-14T11:35:22;98081.25;;;37.46;25.10
34482;BME280;20720;48.886;9.388;2023-06-14T11:37:54;98085.09;;;36.95;25.03
34482;BME280;20720;48.886;9.388;2023-06-14T11:40:24;98080.97;;;31.81;28.87
34482;BME280;20720;48.886;9.388;2023-06-14T11:42:49;98073.38;;;30.04;31.81
34482;BME280;20720;48.886;9.388;2023-06-14T11:45:15;98086.56;;;34.69;29.10
34482;BME280;20720;48.886;9.388;2023-06-14T11:47:40;98077.50;;;34.87;27.63
34482;BME280;20720;48.886;9.388;2023-06-14T11:50:07;98069.63;;;34.41;27.97
34482;BME280;20720;48.886;9.388;2023-06-14T11:52:36;98070.00;;;33.51;30.08
34482;BME280;20720;48.886;9.388;2023-06-14T11:55:03;98063.25;;;31.99;31.04
34482;BME280;20720;48.886;9.388;2023-06-14T11:57:35;98080.41;;;31.03;31.43
34482;BME280;20720;48.886;9.388;2023-06-14T12:00:04;98074.91;;;30.34;31.53
34482;BME280;20720;48.886;9.388;2023-06-14T12:02:37;98074.09;;;33.10;30.52
34482;BME280;20720;48.886;9.388;2023-06-14T12:05:05;98074.66;;;31.65;30.58
34482;BME280;20720;48.886;9.388;2023-06-14T12:07:33;98077.84;;;32.47;30.67
34482;BME280;20720;48.886;9.388;2023-06-14T12:12:26;98068.06;;;33.51;26.86
34482;BME280;20720;48.886;9.388;2023-06-14T12:14:53;98070.81;;;33.86;28.01
34482;BME280;20720;48.886;9.388;2023-06-14T12:17:19;98071.25;;;32.91;29.76
34482;BME280;20720;48.886;9.388;2023-06-14T12:19:48;98067.56;;;32.56;30.64
34482;BME280;20720;48.886;9.388;2023-06-14T12:22:15;98068.06;;;35.04;28.27
34482;BME280;20720;48.886;9.388;2023-06-14T12:24:44;98075.97;;;37.82;25.20
34482;BME280;20720;48.886;9.388;2023-06-14T12:27:10;98068.34;;;35.44;26.05
34482;BME280;20720;48.886;9.388;2023-06-14T12:29:37;98059.63;;;34.90;28.62
34482;BME280;20720;48.886;9.388;2023-06-14T12:32:02;98068.66;;;36.95;26.59
34482;BME280;20720;48.886;9.388;2023-06-14T12:34:28;98065.38;;;37.22;25.19
34482;BME280;20720;48.886;9.388;2023-06-14T12:36:54;98061.78;;;33.00;30.26
34482;BME280;20720;48.886;9.388;2023-06-14T12:39:19;98061.75;;;33.16;29.08
34482;BME280;20720;48.886;9.388;2023-06-14T12:41:45;98061.28;;;30.22;31.25
34482;BME280;20720;48.886;9.388;2023-06-14T12:44:12;98059.91;;;30.49;33.42
34482;BME280;20720;48.886;9.388;2023-06-14T12:46:37;98064.88;;;31.76;31.01
34482;BME280;20720;48.886;9.388;2023-06-14T12:49:05;98071.03;;;31.61;31.73
34482;BME280;20720;48.886;9.388;2023-06-14T12:51:30;98070.31;;;29.64;34.50
34482;BME280;20720;48.886;9.388;2023-06-14T12:53:55;98062.59;;;32.73;30.90
34482;BME280;20720;48.886;9.388;2023-06-14T12:56:21;98058.69;;;30.46;31.34
34482;BME280;20720;48.886;9.388;2023-06-14T12:58:46;98061.66;;;31.22;33.33
34482;BME280;20720;48.886;9.388;2023-06-14T13:01:11;98063.28;;;32.55;32.51
34482;BME280;20720;48.886;9.388;2023-06-14T13:03:37;98071.81;;;29.83;34.46
34482;BME280;20720;48.886;9.388;2023-06-14T13:06:03;98062.56;;;28.88;34.95
34482;BME280;20720;48.886;9.388;2023-06-14T13:08:29;98059.19;;;28.99;35.75
34482;BME280;20720;48.886;9.388;2023-06-14T13:10:55;98065.44;;;32.92;32.50